Vincennes, Indiana
Current Conditions -  °F | °C
As of 7:53 AM on Sunday 25 Jan 2015 (Local Time) from KLWV Reporting Station
Overcast Overcast  
Wind Chill: 33°   Ceiling: 8000
Heat Index: 39°   Visibility: 10mi
Dew Point: 34°   Wind: 9mph
Humidity: 82%   Direction: 190°S
Pressure: 29.65"   Gusts: NA
Location:  38.68°N, 87.53°W
Report Text: KLWV 251353Z AUTO 19008KT 10SM OVC080 04/01 A2965 RMK AO2 SLP043 T00390011
Loading
Personal Weather Stations






























Interactive Weather Map New forecast layout! Learn more

10-Day Weather Forecast

Advertisements
Track Severe Weather on mobile